Airport View

Enter AWOS ICAO identifier for current METAR.

ex. KFNL

KCPK 202230Z AUTO 09003KT 10SM CLR 20/19 A3022 RMK AO2 T02000185

20 Oct 2020 22:30

Frequency: 123.675

Phone: 757-421-0252

Other Area AWOS: KNFE - KPVG - KSFQ - KORF

TAF KORF 201754Z 2018/2118 07004KT P6SM BKN004 TEMPO 2018/2020 BKN010 FM202000 03005KT P6SM SCT015 OVC040 FM210200 14004KT P6SM BKN020 FM210600 VRB03KT 1SM BR BKN006 FM211500 11004KT P6SM BKN012 FM211700 11005KT P6SM BKN150